createdAt,value
2022-10-05T00:01:35.530Z,14.46
2022-10-05T00:04:22.493Z,14.50
2022-10-05T00:07:16.708Z,14.62
2022-10-05T00:09:46.497Z,14.65
2022-10-05T00:12:17.193Z,14.57
2022-10-05T00:14:46.413Z,14.46
2022-10-05T00:17:24.343Z,14.26
2022-10-05T00:19:54.685Z,14.45
2022-10-05T00:22:33.710Z,14.38
2022-10-05T00:25:02.819Z,14.45
2022-10-05T00:27:37.480Z,14.40
2022-10-05T00:32:34.180Z,14.28
2022-10-05T00:35:01.000Z,14.30
2022-10-05T00:37:27.815Z,14.41
2022-10-05T00:39:54.705Z,14.50
2022-10-05T00:42:51.961Z,14.58
2022-10-05T00:45:48.538Z,14.68
2022-10-05T00:48:48.495Z,14.49
2022-10-05T00:51:28.834Z,14.57
2022-10-05T00:54:36.761Z,14.53
2022-10-05T00:57:27.741Z,14.67
2022-10-05T01:00:07.828Z,14.76
2022-10-05T01:03:19.271Z,14.68
2022-10-05T01:06:14.983Z,14.69
2022-10-05T01:09:07.904Z,14.80
2022-10-05T01:11:49.706Z,14.77
2022-10-05T01:14:30.153Z,14.94
2022-10-05T01:17:20.469Z,14.98
2022-10-05T01:20:39.484Z,15.15
2022-10-05T01:23:46.157Z,15.23
2022-10-05T01:27:00.975Z,14.95
2022-10-05T01:30:12.207Z,15.07
2022-10-05T01:32:56.839Z,14.98
2022-10-05T01:35:47.937Z,15.13
2022-10-05T01:38:27.995Z,15.06
2022-10-05T01:41:31.479Z,15.04
2022-10-05T01:44:05.828Z,15.05
2022-10-05T01:47:21.905Z,15.00
2022-10-05T01:50:25.345Z,15.16
2022-10-05T01:53:42.441Z,15.29
2022-10-05T01:56:32.924Z,15.28
2022-10-05T01:59:12.356Z,15.37
2022-10-05T02:02:20.571Z,15.38
2022-10-05T02:05:05.441Z,15.44
2022-10-05T02:08:11.027Z,15.48
2022-10-05T02:10:46.572Z,15.40
2022-10-05T02:13:21.609Z,15.31
2022-10-05T02:16:07.532Z,15.34
2022-10-05T02:18:47.409Z,15.22
2022-10-05T02:21:14.952Z,15.41
2022-10-05T02:23:44.992Z,15.38
2022-10-05T02:26:15.003Z,15.11
2022-10-05T02:28:47.072Z,15.22
2022-10-05T02:31:19.891Z,15.31
2022-10-05T02:33:46.802Z,15.44
2022-10-05T02:36:42.048Z,15.37
2022-10-05T02:39:34.964Z,15.49
2022-10-05T02:42:49.423Z,15.35
2022-10-05T02:46:02.567Z,15.45
2022-10-05T02:48:55.098Z,15.44
2022-10-05T02:51:52.927Z,15.56
2022-10-05T02:54:58.668Z,15.63
2022-10-05T02:57:39.292Z,15.63
2022-10-05T03:00:06.241Z,15.67
2022-10-05T03:02:48.455Z,15.79
2022-10-05T03:05:35.816Z,15.71
2022-10-05T03:08:16.621Z,15.66
2022-10-05T03:11:18.631Z,15.75
2022-10-05T03:14:22.112Z,15.74
2022-10-05T03:17:00.981Z,15.77
2022-10-05T03:19:59.410Z,15.57
2022-10-05T03:22:52.014Z,15.58
2022-10-05T03:25:58.768Z,15.48
2022-10-05T03:29:00.217Z,15.11
2022-10-05T03:31:44.256Z,15.21
2022-10-05T03:34:37.006Z,15.33
2022-10-05T03:37:22.684Z,15.27
2022-10-05T03:40:07.879Z,14.99
2022-10-05T03:43:16.495Z,15.17
2022-10-05T03:46:05.056Z,15.18
2022-10-05T03:49:04.886Z,15.24
2022-10-05T03:51:36.139Z,15.22
2022-10-05T03:54:19.686Z,15.02
2022-10-05T03:57:27.128Z,15.33
2022-10-05T04:00:06.467Z,15.23
2022-10-05T04:02:48.288Z,15.10
2022-10-05T04:05:21.841Z,15.26
2022-10-05T04:08:12.362Z,15.31
2022-10-05T04:10:43.647Z,15.10
2022-10-05T04:13:20.686Z,14.96
2022-10-05T04:16:04.492Z,14.99
2022-10-05T04:18:38.852Z,15.21
2022-10-05T04:21:31.399Z,15.14
2022-10-05T04:24:34.197Z,15.07
2022-10-05T04:27:11.757Z,15.02
2022-10-05T04:29:51.734Z,15.17
2022-10-05T04:32:47.269Z,15.40
2022-10-05T04:35:29.998Z,15.19
2022-10-05T04:38:27.436Z,15.23
2022-10-05T04:41:06.294Z,15.15
2022-10-05T04:44:14.181Z,15.46
2022-10-05T04:47:22.508Z,15.40
2022-10-05T04:50:10.733Z,15.48
2022-10-05T04:53:07.409Z,15.62
2022-10-05T04:55:56.608Z,15.33
2022-10-05T04:59:14.591Z,15.23
2022-10-05T05:02:04.667Z,15.54
2022-10-05T05:05:05.914Z,15.60
2022-10-05T05:08:19.982Z,15.75
2022-10-05T05:11:29.607Z,15.71
2022-10-05T05:14:13.334Z,15.65
2022-10-05T05:16:42.011Z,15.54
2022-10-05T05:19:46.301Z,15.76
2022-10-05T05:23:05.932Z,15.50
2022-10-05T05:26:09.954Z,15.54
2022-10-05T05:29:37.714Z,15.69
2022-10-05T05:32:39.291Z,15.66
2022-10-05T05:35:30.280Z,15.51
2022-10-05T05:38:20.887Z,15.68
2022-10-05T05:40:54.687Z,15.33
2022-10-05T05:44:01.998Z,15.62
2022-10-05T05:47:02.329Z,15.79
2022-10-05T05:49:53.474Z,15.70
2022-10-05T05:52:39.311Z,15.95
2022-10-05T05:55:24.403Z,15.96
2022-10-05T05:58:04.374Z,16.07
2022-10-05T06:00:55.836Z,15.55
2022-10-05T06:03:38.823Z,15.51
2022-10-05T06:06:17.276Z,15.38
2022-10-05T06:09:03.578Z,15.67
2022-10-05T06:11:41.320Z,15.60
2022-10-05T06:14:29.031Z,15.51
2022-10-05T06:17:18.066Z,15.72
2022-10-05T06:19:50.056Z,15.61
2022-10-05T06:22:28.675Z,15.98
2022-10-05T06:25:20.952Z,15.89
2022-10-05T06:28:16.113Z,15.81
2022-10-05T06:31:29.740Z,15.88
2022-10-05T06:34:35.635Z,15.73
2022-10-05T06:37:14.438Z,15.71
2022-10-05T06:40:08.339Z,15.62
2022-10-05T06:42:57.907Z,15.64
2022-10-05T06:45:54.499Z,16.00
2022-10-05T06:48:54.791Z,15.72
2022-10-05T06:51:38.916Z,15.94
2022-10-05T06:54:35.461Z,16.01
2022-10-05T06:57:16.162Z,15.70
2022-10-05T07:00:25.225Z,16.08
2022-10-05T07:03:03.655Z,16.08
2022-10-05T07:05:46.806Z,16.10
2022-10-05T07:08:33.435Z,16.18
2022-10-05T07:11:52.777Z,16.45
2022-10-05T07:15:16.458Z,16.14
2022-10-05T07:18:13.335Z,16.43
2022-10-05T07:20:50.499Z,16.67
2022-10-05T07:23:28.643Z,16.75
2022-10-05T07:26:18.535Z,17.08
2022-10-05T07:29:12.818Z,17.30
2022-10-05T07:32:04.205Z,17.30
2022-10-05T07:35:04.137Z,16.92
2022-10-05T07:37:54.416Z,17.00
2022-10-05T07:40:39.121Z,17.03
2022-10-05T07:44:02.344Z,17.04
2022-10-05T07:46:51.141Z,16.70
2022-10-05T07:49:52.151Z,16.73
2022-10-05T07:52:39.600Z,16.92
2022-10-05T07:55:23.495Z,17.07
2022-10-05T07:58:19.558Z,17.08
2022-10-05T08:00:59.390Z,17.24
2022-10-05T08:04:00.200Z,17.41
2022-10-05T08:06:47.563Z,17.75
2022-10-05T08:09:45.404Z,17.31
2022-10-05T08:12:24.254Z,17.36
2022-10-05T08:15:14.413Z,17.47
2022-10-05T08:18:11.676Z,17.30
2022-10-05T08:20:57.150Z,17.44
2022-10-05T08:23:49.653Z,17.28
2022-10-05T08:26:37.006Z,17.29
2022-10-05T08:29:35.294Z,17.54
2022-10-05T08:32:10.132Z,17.43
2022-10-05T08:35:07.372Z,17.31
2022-10-05T08:37:43.364Z,17.08
2022-10-05T08:40:21.380Z,17.21
2022-10-05T08:43:00.019Z,16.99
2022-10-05T08:45:48.100Z,17.03
2022-10-05T08:48:40.868Z,17.13
2022-10-05T08:51:37.582Z,17.22
2022-10-05T08:54:39.266Z,17.35
2022-10-05T08:57:35.758Z,17.54
2022-10-05T09:00:11.805Z,17.97
2022-10-05T09:02:56.791Z,17.68
2022-10-05T09:06:01.215Z,17.76
2022-10-05T09:08:58.286Z,18.16
2022-10-05T09:12:21.613Z,18.47
2022-10-05T09:15:41.455Z,18.15
2022-10-05T09:19:52.277Z,18.39
2022-10-05T09:22:59.462Z,18.87
2022-10-05T09:26:15.518Z,19.06
2022-10-05T09:29:58.693Z,18.88
2022-10-05T09:33:14.331Z,19.22
2022-10-05T09:40:21.109Z,19.13
2022-10-05T09:47:24.294Z,19.28
2022-10-05T09:50:17.980Z,19.02
2022-10-05T09:52:56.594Z,18.62
2022-10-05T09:55:40.807Z,19.21
2022-10-05T09:58:28.457Z,19.26
2022-10-05T10:01:36.387Z,19.37
2022-10-05T10:04:43.767Z,19.11
2022-10-05T10:07:36.564Z,19.17
2022-10-05T10:11:01.396Z,18.98
2022-10-05T10:13:37.128Z,18.91
2022-10-05T10:16:23.568Z,19.07
2022-10-05T10:19:24.168Z,18.63
2022-10-05T10:21:50.869Z,18.55
2022-10-05T10:24:51.481Z,18.56
2022-10-05T10:27:41.063Z,18.61
2022-10-05T10:30:57.662Z,18.49
2022-10-05T10:33:59.821Z,18.84
2022-10-05T10:36:50.417Z,18.89
2022-10-05T10:40:13.203Z,19.16
2022-10-05T10:43:11.294Z,19.47
2022-10-05T10:45:56.317Z,18.65
2022-10-05T10:48:29.354Z,18.83
2022-10-05T10:51:04.552Z,19.09
2022-10-05T10:54:04.758Z,19.04
2022-10-05T10:57:05.960Z,18.93
2022-10-05T10:59:57.183Z,19.13
2022-10-05T11:03:05.043Z,18.78
2022-10-05T11:05:37.221Z,18.89
2022-10-05T11:08:33.027Z,19.24
2022-10-05T11:11:53.288Z,18.94
2022-10-05T11:14:52.347Z,19.19
2022-10-05T11:17:36.097Z,19.29
2022-10-05T11:20:30.873Z,19.60
2022-10-05T11:23:38.840Z,19.98
2022-10-05T11:26:33.673Z,19.61
2022-10-05T11:29:11.387Z,19.51
2022-10-05T11:31:50.147Z,19.68
2022-10-05T11:34:44.059Z,19.59
2022-10-05T11:38:09.957Z,19.71
2022-10-05T11:41:05.881Z,19.59
2022-10-05T11:44:19.472Z,20.05
2022-10-05T11:47:12.335Z,20.13
2022-10-05T11:50:05.496Z,19.79
2022-10-05T11:53:06.560Z,20.01
2022-10-05T11:56:09.483Z,19.67
2022-10-05T11:59:03.141Z,19.45
2022-10-05T12:01:30.451Z,19.57
2022-10-05T12:04:20.706Z,20.31
2022-10-05T12:07:05.585Z,20.54
2022-10-05T12:10:17.470Z,20.25
2022-10-05T12:12:53.107Z,20.35
2022-10-05T12:15:29.599Z,22.10
2022-10-05T12:18:16.922Z,22.03
2022-10-05T12:21:15.697Z,21.81
2022-10-05T12:24:07.054Z,22.34
2022-10-05T12:26:45.159Z,23.12
2022-10-05T12:29:32.194Z,22.84
2022-10-05T12:32:40.245Z,21.91
2022-10-05T12:35:53.525Z,21.79
2022-10-05T12:38:38.448Z,21.31
2022-10-05T12:41:21.385Z,21.94
2022-10-05T12:44:37.552Z,21.65
2022-10-05T12:47:44.873Z,21.72
2022-10-05T12:50:23.686Z,22.52
2022-10-05T12:53:31.519Z,22.54
2022-10-05T12:56:21.556Z,22.12
2022-10-05T12:59:06.158Z,21.50
2022-10-05T13:01:43.602Z,21.61
2022-10-05T13:04:31.451Z,22.88
2022-10-05T13:07:28.514Z,21.52
2022-10-05T13:10:48.754Z,21.65
2022-10-05T13:14:03.313Z,21.92
2022-10-05T13:16:56.114Z,21.88
2022-10-05T13:19:39.471Z,21.89
2022-10-05T13:22:12.526Z,21.35
2022-10-05T13:25:09.519Z,20.31
2022-10-05T13:27:44.590Z,21.36
2022-10-05T13:30:15.285Z,21.99
2022-10-05T13:33:14.346Z,22.78
2022-10-05T13:35:50.303Z,22.52
2022-10-05T13:39:13.739Z,23.43
2022-10-05T13:42:02.670Z,23.22
2022-10-05T13:44:55.359Z,23.49
2022-10-05T13:47:43.941Z,25.25
2022-10-05T13:50:20.467Z,26.47
2022-10-05T13:53:02.722Z,27.61
2022-10-05T13:55:36.960Z,27.03
2022-10-05T13:58:21.006Z,28.11
2022-10-05T14:01:03.496Z,26.03
2022-10-05T14:03:37.115Z,25.47
2022-10-05T14:06:27.665Z,26.22
2022-10-05T14:08:58.099Z,26.14
2022-10-05T14:11:38.545Z,24.69
2022-10-05T14:14:24.836Z,25.58
2022-10-05T14:16:59.314Z,26.12
2022-10-05T14:19:31.877Z,26.70
2022-10-05T14:22:02.114Z,26.98
2022-10-05T14:24:44.294Z,27.24
2022-10-05T14:27:23.981Z,26.91
2022-10-05T14:30:01.367Z,26.22
2022-10-05T14:32:36.719Z,25.44
2022-10-05T14:35:18.408Z,26.20
2022-10-05T14:37:56.483Z,28.02
2022-10-05T14:40:38.790Z,28.42
2022-10-05T14:43:14.657Z,26.14
2022-10-05T14:45:55.257Z,25.69
2022-10-05T14:48:28.791Z,25.19
2022-10-05T14:51:03.788Z,23.89
2022-10-05T14:53:57.855Z,23.84
2022-10-05T14:56:33.484Z,23.10
2022-10-05T14:59:10.688Z,21.89
2022-10-05T15:02:00.803Z,21.54
2022-10-05T15:04:43.007Z,21.45
2022-10-05T15:07:21.798Z,21.12
2022-10-05T15:10:42.373Z,20.61
2022-10-05T15:13:41.608Z,20.49
2022-10-05T15:16:31.379Z,20.83
2022-10-05T15:18:58.170Z,20.87
2022-10-05T15:21:55.212Z,21.22
2022-10-05T15:24:34.537Z,21.26
2022-10-05T15:27:04.572Z,20.58
2022-10-05T15:30:22.256Z,20.40
2022-10-05T15:32:57.857Z,20.59
2022-10-05T15:35:36.802Z,20.50
2022-10-05T15:38:12.411Z,20.45
2022-10-05T15:40:59.053Z,20.63
2022-10-05T15:43:58.514Z,20.89
2022-10-05T15:46:56.380Z,20.46
2022-10-05T15:49:28.913Z,20.48
2022-10-05T15:51:59.391Z,20.13
2022-10-05T15:55:15.492Z,19.87
2022-10-05T15:57:52.105Z,19.85
2022-10-05T16:00:24.504Z,19.89
2022-10-05T16:03:18.476Z,19.91
2022-10-05T16:06:13.275Z,20.11
2022-10-05T16:09:01.931Z,19.97
2022-10-05T16:12:01.482Z,19.76
2022-10-05T16:15:48.682Z,19.76
2022-10-05T16:18:36.434Z,19.76
2022-10-05T16:21:38.976Z,19.90
2022-10-05T16:24:23.943Z,19.71
2022-10-05T16:27:06.106Z,19.76
2022-10-05T16:29:39.826Z,19.72
2022-10-05T16:32:20.502Z,19.74
2022-10-05T16:34:59.270Z,19.56
2022-10-05T16:37:49.550Z,19.59
2022-10-05T16:41:02.157Z,19.23
2022-10-05T16:44:10.563Z,19.33
2022-10-05T16:46:46.861Z,19.32
2022-10-05T16:49:22.630Z,19.41
2022-10-05T16:52:01.176Z,19.37
2022-10-05T16:54:47.958Z,19.32
2022-10-05T16:57:29.347Z,19.25
2022-10-05T17:00:23.593Z,19.02
2022-10-05T17:03:24.738Z,18.94
2022-10-05T17:06:30.163Z,19.10
2022-10-05T17:09:35.216Z,18.97
2022-10-05T17:12:16.678Z,18.90
2022-10-05T17:15:29.061Z,18.89
2022-10-05T17:18:20.149Z,19.02
2022-10-05T17:21:05.039Z,19.03
2022-10-05T17:24:08.727Z,18.68
2022-10-05T17:26:56.550Z,18.61
2022-10-05T17:29:26.850Z,18.58
2022-10-05T17:32:04.690Z,18.60
2022-10-05T17:34:39.160Z,18.79
2022-10-05T17:37:43.662Z,18.81
2022-10-05T17:40:38.671Z,18.66
2022-10-05T17:43:24.009Z,18.47
2022-10-05T17:46:05.766Z,18.37
2022-10-05T17:48:51.707Z,18.49
2022-10-05T17:51:49.075Z,18.49
2022-10-05T17:55:20.159Z,18.49
2022-10-05T17:57:50.043Z,18.33
2022-10-05T18:00:29.316Z,18.05
2022-10-05T18:02:57.729Z,18.26
2022-10-05T18:05:29.715Z,18.21
2022-10-05T18:08:16.447Z,18.19
2022-10-05T18:11:28.196Z,18.19
2022-10-05T18:14:18.425Z,18.11
2022-10-05T18:17:02.898Z,18.08
2022-10-05T18:19:33.283Z,18.23
2022-10-05T18:22:17.420Z,18.49
2022-10-05T18:25:05.760Z,18.28
2022-10-05T18:27:44.203Z,18.30
2022-10-05T18:30:26.136Z,18.37
2022-10-05T18:33:11.136Z,18.24
2022-10-05T18:36:21.080Z,18.21
2022-10-05T18:38:58.320Z,18.19
2022-10-05T18:42:01.816Z,18.26
2022-10-05T18:44:47.312Z,18.14
2022-10-05T18:47:23.196Z,18.04
2022-10-05T18:50:17.114Z,17.93
2022-10-05T18:52:50.104Z,17.85
2022-10-05T18:55:47.270Z,17.81
2022-10-05T18:58:26.315Z,17.68
2022-10-05T19:01:29.411Z,17.66
2022-10-05T19:04:41.151Z,17.52
2022-10-05T19:07:19.471Z,17.43
2022-10-05T19:10:11.757Z,17.18
2022-10-05T19:12:56.422Z,16.98
2022-10-05T19:15:44.142Z,16.94
2022-10-05T19:19:09.993Z,16.93
2022-10-05T19:22:11.783Z,16.75
2022-10-05T19:25:10.862Z,16.94
2022-10-05T19:28:10.962Z,16.90
2022-10-05T19:30:55.135Z,16.98
2022-10-05T19:33:51.277Z,16.81
2022-10-05T19:36:18.205Z,16.95
2022-10-05T19:39:21.824Z,16.77
2022-10-05T19:42:09.794Z,16.79
2022-10-05T19:44:45.633Z,16.89
2022-10-05T19:48:02.655Z,16.88
2022-10-05T19:50:33.616Z,16.86
2022-10-05T19:53:12.618Z,17.08
2022-10-05T19:55:47.029Z,17.10
2022-10-05T19:58:22.074Z,16.90
2022-10-05T20:01:06.739Z,16.93
2022-10-05T20:03:37.937Z,16.90
2022-10-05T20:06:07.967Z,16.88
2022-10-05T20:08:43.801Z,16.93
2022-10-05T20:11:27.210Z,17.08
2022-10-05T20:13:54.865Z,16.87
2022-10-05T20:16:55.582Z,17.18
2022-10-05T20:19:50.079Z,17.34
2022-10-05T20:22:35.722Z,17.51
2022-10-05T20:25:08.614Z,17.63
2022-10-05T20:27:56.029Z,17.66
2022-10-05T20:30:28.880Z,17.85
2022-10-05T20:32:59.554Z,17.92
2022-10-05T20:35:30.838Z,17.98
2022-10-05T20:38:00.969Z,17.96
2022-10-05T20:40:30.135Z,17.90
2022-10-05T20:42:58.339Z,17.90
2022-10-05T20:45:36.417Z,18.02
2022-10-05T20:48:06.550Z,18.05
2022-10-05T20:50:33.963Z,18.06
2022-10-05T20:53:06.343Z,18.06
2022-10-05T20:55:36.860Z,18.07
2022-10-05T20:58:11.016Z,17.97
2022-10-05T21:00:56.308Z,17.89
2022-10-05T21:03:23.232Z,18.07
2022-10-05T21:05:50.378Z,18.12
2022-10-05T21:08:17.780Z,18.06
2022-10-05T21:10:50.411Z,17.96
2022-10-05T21:13:18.434Z,17.83
2022-10-05T21:15:45.239Z,18.11
2022-10-05T21:18:17.165Z,18.19
2022-10-05T21:20:50.036Z,18.01
2022-10-05T21:23:19.444Z,18.04
2022-10-05T21:25:48.337Z,18.30
2022-10-05T21:28:15.232Z,18.29
2022-10-05T21:30:42.136Z,18.00
2022-10-05T21:33:11.115Z,18.10
2022-10-05T21:35:38.892Z,18.13
2022-10-05T21:38:05.753Z,18.14
2022-10-05T21:40:32.702Z,18.10
2022-10-05T21:42:59.558Z,18.01
2022-10-05T21:45:28.423Z,18.16
2022-10-05T21:47:57.484Z,18.16
2022-10-05T21:50:28.060Z,18.09
2022-10-05T21:52:59.992Z,18.18
2022-10-05T21:55:29.400Z,18.21
2022-10-05T21:57:57.951Z,18.23
2022-10-05T22:00:24.778Z,18.05
2022-10-05T22:02:51.725Z,18.09
2022-10-05T22:05:21.272Z,18.06
2022-10-05T22:07:48.359Z,18.20
2022-10-05T22:10:17.724Z,18.27
2022-10-05T22:12:47.241Z,18.30
2022-10-05T22:15:14.689Z,18.24
2022-10-05T22:17:42.248Z,18.26
2022-10-05T22:20:14.454Z,18.34
2022-10-05T22:22:41.340Z,18.34
2022-10-05T22:25:11.141Z,18.27
2022-10-05T22:27:38.074Z,18.26
2022-10-05T22:30:08.858Z,18.57
2022-10-05T22:32:35.677Z,18.51
2022-10-05T22:35:02.505Z,18.56
2022-10-05T22:37:34.885Z,18.60
2022-10-05T22:40:01.704Z,18.71
2022-10-05T22:42:31.477Z,18.56
2022-10-05T22:45:00.624Z,18.63
2022-10-05T22:47:29.898Z,18.87
2022-10-05T22:49:56.744Z,18.66
2022-10-05T22:52:26.600Z,18.73
2022-10-05T22:54:53.487Z,18.69
2022-10-05T22:57:20.388Z,18.75
2022-10-05T22:59:50.428Z,19.06
2022-10-05T23:02:18.661Z,18.99
2022-10-05T23:04:48.722Z,18.89
2022-10-05T23:07:15.540Z,19.04
2022-10-05T23:09:42.519Z,18.91
2022-10-05T23:12:11.617Z,19.00
2022-10-05T23:14:42.870Z,19.08
2022-10-05T23:17:11.945Z,19.25
2022-10-05T23:19:38.811Z,19.12
2022-10-05T23:22:08.808Z,19.11
2022-10-05T23:24:35.648Z,19.12
2022-10-05T23:27:02.493Z,19.23
2022-10-05T23:29:31.566Z,19.24
2022-10-05T23:31:58.393Z,19.26
2022-10-05T23:34:27.316Z,19.30
2022-10-05T23:36:54.250Z,19.27
2022-10-05T23:39:23.470Z,19.53
2022-10-05T23:41:50.445Z,19.75
2022-10-05T23:44:17.669Z,19.57
2022-10-05T23:46:44.532Z,19.55
2022-10-05T23:49:11.662Z,19.58
2022-10-05T23:51:38.520Z,19.59
2022-10-05T23:54:07.758Z,19.29
2022-10-05T23:56:34.580Z,18.36
2022-10-05T23:59:01.453Z,18.05
